sensor_id;sensor_type;location;lat;lon;timestamp;temperature;humidity
11280;DHT22;5696;50.928;6.960;2022-12-20T06:04:18;9.80;99.90
11280;DHT22;5696;50.928;6.960;2022-12-20T06:06:44;9.80;99.90
11280;DHT22;5696;50.928;6.960;2022-12-20T06:09:09;9.80;99.90
11280;DHT22;5696;50.928;6.960;2022-12-20T06:11:36;9.90;99.90
11280;DHT22;5696;50.928;6.960;2022-12-20T06:14:02;9.90;99.90
11280;DHT22;5696;50.928;6.960;2022-12-20T06:16:28;9.90;99.90
11280;DHT22;5696;50.928;6.960;2022-12-20T06:18:54;10.00;99.90
11280;DHT22;5696;50.928;6.960;2022-12-20T06:21:20;10.00;99.90
11280;DHT22;5696;50.928;6.960;2022-12-20T06:23:45;10.00;99.90
11280;DHT22;5696;50.928;6.960;2022-12-20T06:26:11;9.90;99.90
11280;DHT22;5696;50.928;6.960;2022-12-20T06:28:37;9.80;99.90
11280;DHT22;5696;50.928;6.960;2022-12-20T06:31:08;9.90;99.90
11280;DHT22;5696;50.928;6.960;2022-12-20T06:33:35;9.90;99.90
11280;DHT22;5696;50.928;6.960;2022-12-20T06:36:01;9.90;99.90
11280;DHT22;5696;50.928;6.960;2022-12-20T06:38:26;10.00;99.90
11280;DHT22;5696;50.928;6.960;2022-12-20T06:40:52;10.00;99.90
11280;DHT22;5696;50.928;6.960;2022-12-20T06:43:17;10.00;99.90
11280;DHT22;5696;50.928;6.960;2022-12-20T06:45:43;10.00;99.90
11280;DHT22;5696;50.928;6.960;2022-12-20T06:48:09;9.90;99.90
11280;DHT22;5696;50.928;6.960;2022-12-20T06:50:35;10.00;99.90
11280;DHT22;5696;50.928;6.960;2022-12-20T06:53:01;9.90;99.90
11280;DHT22;5696;50.928;6.960;2022-12-20T06:55:27;9.90;99.90
11280;DHT22;5696;50.928;6.960;2022-12-20T06:57:52;9.90;99.90
11280;DHT22;5696;50.928;6.960;2022-12-20T07:00:18;9.80;99.90
11280;DHT22;5696;50.928;6.960;2022-12-20T07:02:44;9.90;99.90
11280;DHT22;5696;50.928;6.960;2022-12-20T07:05:10;9.90;99.90
11280;DHT22;5696;50.928;6.960;2022-12-20T07:07:35;9.90;99.90
11280;DHT22;5696;50.928;6.960;2022-12-20T07:10:01;9.90;99.90
11280;DHT22;5696;50.928;6.960;2022-12-20T07:12:27;9.90;99.90
11280;DHT22;5696;50.928;6.960;2022-12-20T07:14:53;9.90;99.90
11280;DHT22;5696;50.928;6.960;2022-12-20T07:17:19;9.90;99.90
11280;DHT22;5696;50.928;6.960;2022-12-20T07:19:44;9.80;99.90
11280;DHT22;5696;50.928;6.960;2022-12-20T07:22:10;9.80;99.90
11280;DHT22;5696;50.928;6.960;2022-12-20T07:24:36;9.80;99.90
11280;DHT22;5696;50.928;6.960;2022-12-20T07:27:01;9.70;99.90
11280;DHT22;5696;50.928;6.960;2022-12-20T07:29:27;9.80;99.90
11280;DHT22;5696;50.928;6.960;2022-12-20T07:31:53;9.80;99.90
11280;DHT22;5696;50.928;6.960;2022-12-20T07:34:19;9.80;99.90
11280;DHT22;5696;50.928;6.960;2022-12-20T07:36:44;9.80;99.90
11280;DHT22;5696;50.928;6.960;2022-12-20T07:39:10;9.80;99.90
11280;DHT22;5696;50.928;6.960;2022-12-20T07:41:36;9.80;99.90
11280;DHT22;5696;50.928;6.960;2022-12-20T07:44:01;9.80;99.90
11280;DHT22;5696;50.928;6.960;2022-12-20T07:46:27;9.80;99.90
11280;DHT22;5696;50.928;6.960;2022-12-20T07:48:53;9.80;99.90
11280;DHT22;5696;50.928;6.960;2022-12-20T07:51:31;9.80;99.90
11280;DHT22;5696;50.928;6.960;2022-12-20T07:54:14;9.80;99.90
11280;DHT22;5696;50.928;6.960;2022-12-20T07:56:45;9.80;99.90
11280;DHT22;5696;50.928;6.960;2022-12-20T07:59:13;9.80;99.90
11280;DHT22;5696;50.928;6.960;2022-12-20T08:01:41;9.80;99.90
11280;DHT22;5696;50.928;6.960;2022-12-20T08:04:14;9.90;99.90
11280;DHT22;5696;50.928;6.960;2022-12-20T08:06:42;10.00;99.90
11280;DHT22;5696;50.928;6.960;2022-12-20T08:09:10;10.10;99.90
11280;DHT22;5696;50.928;6.960;2022-12-20T08:11:40;10.10;99.90
11280;DHT22;5696;50.928;6.960;2022-12-20T08:14:07;10.20;99.90
11280;DHT22;5696;50.928;6.960;2022-12-20T08:16:33;10.20;99.90
11280;DHT22;5696;50.928;6.960;2022-12-20T08:19:00;10.20;99.90
11280;DHT22;5696;50.928;6.960;2022-12-20T08:21:25;10.20;99.90
11280;DHT22;5696;50.928;6.960;2022-12-20T08:23:51;10.20;99.90
11280;DHT22;5696;50.928;6.960;2022-12-20T08:26:17;10.30;99.90
11280;DHT22;5696;50.928;6.960;2022-12-20T08:28:43;10.40;99.90
11280;DHT22;5696;50.928;6.960;2022-12-20T08:31:09;10.40;99.90
11280;DHT22;5696;50.928;6.960;2022-12-20T08:33:37;10.50;99.90
11280;DHT22;5696;50.928;6.960;2022-12-20T08:36:06;10.50;99.90
11280;DHT22;5696;50.928;6.960;2022-12-20T08:38:32;10.50;99.90
11280;DHT22;5696;50.928;6.960;2022-12-20T08:41:06;10.50;99.90
11280;DHT22;5696;50.928;6.960;2022-12-20T08:43:33;10.60;99.90
11280;DHT22;5696;50.928;6.960;2022-12-20T08:45:59;10.60;99.90
11280;DHT22;5696;50.928;6.960;2022-12-20T08:48:25;10.50;99.90
11280;DHT22;5696;50.928;6.960;2022-12-20T08:51:10;10.50;99.90
11280;DHT22;5696;50.928;6.960;2022-12-20T08:53:37;10.60;99.90
11280;DHT22;5696;50.928;6.960;2022-12-20T08:56:08;10.60;99.90
11280;DHT22;5696;50.928;6.960;2022-12-20T08:58:34;10.60;99.90
11280;DHT22;5696;50.928;6.960;2022-12-20T09:01:01;10.60;99.90
11280;DHT22;5696;50.928;6.960;2022-12-20T09:03:29;10.60;99.90
11280;DHT22;5696;50.928;6.960;2022-12-20T09:05:55;10.60;99.90
11280;DHT22;5696;50.928;6.960;2022-12-20T09:08:21;10.50;99.90
11280;DHT22;5696;50.928;6.960;2022-12-20T09:10:47;10.50;99.90
11280;DHT22;5696;50.928;6.960;2022-12-20T09:13:12;10.50;99.90
11280;DHT22;5696;50.928;6.960;2022-12-20T09:15:38;10.50;99.90
11280;DHT22;5696;50.928;6.960;2022-12-20T09:18:04;10.40;99.90
11280;DHT22;5696;50.928;6.960;2022-12-20T09:20:30;10.40;99.90
11280;DHT22;5696;50.928;6.960;2022-12-20T09:22:57;10.40;99.90
11280;DHT22;5696;50.928;6.960;2022-12-20T09:25:24;10.50;99.90
11280;DHT22;5696;50.928;6.960;2022-12-20T09:27:50;10.60;99.90
11280;DHT22;5696;50.928;6.960;2022-12-20T09:30:16;10.60;99.90
11280;DHT22;5696;50.928;6.960;2022-12-20T09:32:41;10.50;99.90
11280;DHT22;5696;50.928;6.960;2022-12-20T09:35:07;10.50;99.90
11280;DHT22;5696;50.928;6.960;2022-12-20T09:37:33;10.50;99.90
11280;DHT22;5696;50.928;6.960;2022-12-20T09:39:58;10.50;99.90
11280;DHT22;5696;50.928;6.960;2022-12-20T09:42:26;10.70;99.90
11280;DHT22;5696;50.928;6.960;2022-12-20T09:44:57;10.60;99.90
11280;DHT22;5696;50.928;6.960;2022-12-20T09:47:24;10.60;99.90
11280;DHT22;5696;50.928;6.960;2022-12-20T09:49:53;10.70;99.90
11280;DHT22;5696;50.928;6.960;2022-12-20T09:52:45;10.70;99.90
11280;DHT22;5696;50.928;6.960;2022-12-20T09:55:38;10.70;99.90
11280;DHT22;5696;50.928;6.960;2022-12-20T09:58:43;10.80;99.90
11280;DHT22;5696;50.928;6.960;2022-12-20T10:01:18;10.80;99.90
11280;DHT22;5696;50.928;6.960;2022-12-20T10:03:44;10.90;99.90
11280;DHT22;5696;50.928;6.960;2022-12-20T10:06:34;11.10;99.90
11280;DHT22;5696;50.928;6.960;2022-12-20T10:09:04;11.20;99.90
11280;DHT22;5696;50.928;6.960;2022-12-20T10:11:53;11.20;99.90
11280;DHT22;5696;50.928;6.960;2022-12-20T10:14:49;11.00;99.90
11280;DHT22;5696;50.928;6.960;2022-12-20T10:17:33;11.10;99.90
11280;DHT22;5696;50.928;6.960;2022-12-20T10:23:11;11.00;99.90
11280;DHT22;5696;50.928;6.960;2022-12-20T10:25:40;11.00;99.90
11280;DHT22;5696;50.928;6.960;2022-12-20T10:28:12;11.00;99.90
11280;DHT22;5696;50.928;6.960;2022-12-20T10:30:40;11.00;99.90
11280;DHT22;5696;50.928;6.960;2022-12-20T10:33:15;11.10;99.90
11280;DHT22;5696;50.928;6.960;2022-12-20T10:35:42;11.10;99.90
11280;DHT22;5696;50.928;6.960;2022-12-20T10:38:13;11.00;99.90
11280;DHT22;5696;50.928;6.960;2022-12-20T10:40:41;11.00;99.90
11280;DHT22;5696;50.928;6.960;2022-12-20T10:43:16;11.10;99.90
11280;DHT22;5696;50.928;6.960;2022-12-20T10:45:43;11.10;99.90
11280;DHT22;5696;50.928;6.960;2022-12-20T10:48:30;11.20;99.90
11280;DHT22;5696;50.928;6.960;2022-12-20T10:53:36;11.10;99.90
11280;DHT22;5696;50.928;6.960;2022-12-20T10:58:56;11.20;99.90
11280;DHT22;5696;50.928;6.960;2022-12-20T11:01:26;11.20;99.90
11280;DHT22;5696;50.928;6.960;2022-12-20T11:04:02;11.30;99.90
11280;DHT22;5696;50.928;6.960;2022-12-20T11:09:33;11.40;99.90
11280;DHT22;5696;50.928;6.960;2022-12-20T11:12:19;11.30;99.90
11280;DHT22;5696;50.928;6.960;2022-12-20T11:14:46;11.20;99.90
11280;DHT22;5696;50.928;6.960;2022-12-20T11:23:50;11.50;99.90
11280;DHT22;5696;50.928;6.960;2022-12-20T11:26:32;11.40;99.90
11280;DHT22;5696;50.928;6.960;2022-12-20T11:34:32;11.30;99.90
11280;DHT22;5696;50.928;6.960;2022-12-20T11:37:19;11.40;99.90
11280;DHT22;5696;50.928;6.960;2022-12-20T11:40:02;11.50;99.90
11280;DHT22;5696;50.928;6.960;2022-12-20T11:42:36;11.50;99.90
11280;DHT22;5696;50.928;6.960;2022-12-20T11:45:13;11.50;99.90
11280;DHT22;5696;50.928;6.960;2022-12-20T11:51:17;11.50;99.90
11280;DHT22;5696;50.928;6.960;2022-12-20T11:53:49;11.60;99.90
11280;DHT22;5696;50.928;6.960;2022-12-20T12:01:28;11.60;99.90
11280;DHT22;5696;50.928;6.960;2022-12-20T12:04:16;11.60;99.90
11280;DHT22;5696;50.928;6.960;2022-12-20T12:06:50;11.70;99.90
11280;DHT22;5696;50.928;6.960;2022-12-20T12:09:40;11.60;99.90
11280;DHT22;5696;50.928;6.960;2022-12-20T12:12:28;11.50;99.90
11280;DHT22;5696;50.928;6.960;2022-12-20T12:17:50;11.50;99.90
11280;DHT22;5696;50.928;6.960;2022-12-20T12:22:46;11.60;99.90
11280;DHT22;5696;50.928;6.960;2022-12-20T12:25:16;11.70;99.90
11280;DHT22;5696;50.928;6.960;2022-12-20T12:27:42;11.60;99.90
11280;DHT22;5696;50.928;6.960;2022-12-20T12:30:17;11.60;99.90
11280;DHT22;5696;50.928;6.960;2022-12-20T12:32:53;11.70;99.90
11280;DHT22;5696;50.928;6.960;2022-12-20T12:36:41;11.70;99.90
11280;DHT22;5696;50.928;6.960;2022-12-20T12:41:50;11.80;99.90
11280;DHT22;5696;50.928;6.960;2022-12-20T12:46:45;11.80;99.90
11280;DHT22;5696;50.928;6.960;2022-12-20T12:49:17;11.80;99.90
11280;DHT22;5696;50.928;6.960;2022-12-20T12:51:50;12.00;99.90
11280;DHT22;5696;50.928;6.960;2022-12-20T12:54:21;12.00;99.90
11280;DHT22;5696;50.928;6.960;2022-12-20T12:56:48;11.90;99.90
11280;DHT22;5696;50.928;6.960;2022-12-20T12:59:22;11.80;99.90
11280;DHT22;5696;50.928;6.960;2022-12-20T13:11:45;11.70;99.90
11280;DHT22;5696;50.928;6.960;2022-12-20T13:21:56;11.50;99.90
11280;DHT22;5696;50.928;6.960;2022-12-20T13:27:22;11.40;99.90
11280;DHT22;5696;50.928;6.960;2022-12-20T13:43:04;11.40;99.90
11280;DHT22;5696;50.928;6.960;2022-12-20T13:45:31;11.50;99.90
11280;DHT22;5696;50.928;6.960;2022-12-20T13:48:00;11.50;99.90
11280;DHT22;5696;50.928;6.960;2022-12-20T13:50:31;11.50;99.90
11280;DHT22;5696;50.928;6.960;2022-12-20T13:53:00;11.50;99.90
11280;DHT22;5696;50.928;6.960;2022-12-20T13:55:38;11.60;99.90
11280;DHT22;5696;50.928;6.960;2022-12-20T13:58:12;11.60;99.90
11280;DHT22;5696;50.928;6.960;2022-12-20T14:00:40;11.60;99.90
11280;DHT22;5696;50.928;6.960;2022-12-20T14:03:16;11.70;99.90
11280;DHT22;5696;50.928;6.960;2022-12-20T14:05:43;11.70;99.90
11280;DHT22;5696;50.928;6.960;2022-12-20T14:08:20;11.80;99.90
11280;DHT22;5696;50.928;6.960;2022-12-20T14:10:48;11.80;99.90
11280;DHT22;5696;50.928;6.960;2022-12-20T14:13:22;11.80;99.90
11280;DHT22;5696;50.928;6.960;2022-12-20T14:15:48;11.80;99.90
11280;DHT22;5696;50.928;6.960;2022-12-20T14:18:21;11.80;99.90
11280;DHT22;5696;50.928;6.960;2022-12-20T14:20:59;11.80;99.90
11280;DHT22;5696;50.928;6.960;2022-12-20T14:23:35;11.80;99.90
11280;DHT22;5696;50.928;6.960;2022-12-20T14:26:02;11.70;99.90
11280;DHT22;5696;50.928;6.960;2022-12-20T14:28:37;11.70;99.90
11280;DHT22;5696;50.928;6.960;2022-12-20T14:31:07;11.70;99.90
11280;DHT22;5696;50.928;6.960;2022-12-20T14:33:46;11.70;99.90
11280;DHT22;5696;50.928;6.960;2022-12-20T14:38:42;11.70;99.90
11280;DHT22;5696;50.928;6.960;2022-12-20T14:41:39;11.70;99.90
11280;DHT22;5696;50.928;6.960;2022-12-20T14:44:21;11.70;99.90
11280;DHT22;5696;50.928;6.960;2022-12-20T14:46:53;11.70;99.90
11280;DHT22;5696;50.928;6.960;2022-12-20T14:49:30;11.60;99.90
11280;DHT22;5696;50.928;6.960;2022-12-20T14:52:16;11.60;99.90
11280;DHT22;5696;50.928;6.960;2022-12-20T15:08:15;11.60;99.90
11280;DHT22;5696;50.928;6.960;2022-12-20T15:10:48;11.70;99.90
11280;DHT22;5696;50.928;6.960;2022-12-20T15:13:16;11.70;99.90
11280;DHT22;5696;50.928;6.960;2022-12-20T15:15:42;11.60;99.90
11280;DHT22;5696;50.928;6.960;2022-12-20T15:18:13;11.60;99.90
11280;DHT22;5696;50.928;6.960;2022-12-20T15:20:41;11.60;99.90
11280;DHT22;5696;50.928;6.960;2022-12-20T15:23:15;11.70;99.90
11280;DHT22;5696;50.928;6.960;2022-12-20T15:25:42;11.70;99.90
11280;DHT22;5696;50.928;6.960;2022-12-20T15:28:19;11.70;99.90
11280;DHT22;5696;50.928;6.960;2022-12-20T15:30:46;11.80;99.90
11280;DHT22;5696;50.928;6.960;2022-12-20T15:33:25;11.70;99.90
11280;DHT22;5696;50.928;6.960;2022-12-20T15:35:52;11.70;99.90
11280;DHT22;5696;50.928;6.960;2022-12-20T15:38:23;11.60;99.90
11280;DHT22;5696;50.928;6.960;2022-12-20T15:40:55;11.60;99.90
11280;DHT22;5696;50.928;6.960;2022-12-20T15:43:25;11.50;99.90
11280;DHT22;5696;50.928;6.960;2022-12-20T15:45:52;11.50;99.90
11280;DHT22;5696;50.928;6.960;2022-12-20T15:48:22;11.50;99.90
11280;DHT22;5696;50.928;6.960;2022-12-20T15:50:53;11.40;99.90
11280;DHT22;5696;50.928;6.960;2022-12-20T15:53:40;11.30;99.90
11280;DHT22;5696;50.928;6.960;2022-12-20T15:56:16;11.30;99.90
11280;DHT22;5696;50.928;6.960;2022-12-20T15:58:42;11.30;99.90
11280;DHT22;5696;50.928;6.960;2022-12-20T16:01:11;11.30;99.90
11280;DHT22;5696;50.928;6.960;2022-12-20T16:03:37;11.30;99.90
11280;DHT22;5696;50.928;6.960;2022-12-20T16:06:03;11.30;99.90
11280;DHT22;5696;50.928;6.960;2022-12-20T16:08:29;11.20;99.90
11280;DHT22;5696;50.928;6.960;2022-12-20T16:10:55;11.20;99.90
11280;DHT22;5696;50.928;6.960;2022-12-20T16:13:23;11.30;99.90
11280;DHT22;5696;50.928;6.960;2022-12-20T16:15:52;11.40;99.90
11280;DHT22;5696;50.928;6.960;2022-12-20T16:18:18;11.50;99.90
11280;DHT22;5696;50.928;6.960;2022-12-20T16:20:44;11.50;99.90
11280;DHT22;5696;50.928;6.960;2022-12-20T16:23:20;11.50;99.90
11280;DHT22;5696;50.928;6.960;2022-12-20T16:25:49;11.50;99.90
11280;DHT22;5696;50.928;6.960;2022-12-20T16:28:15;11.50;99.90
11280;DHT22;5696;50.928;6.960;2022-12-20T16:30:41;11.50;99.90
11280;DHT22;5696;50.928;6.960;2022-12-20T16:33:17;11.50;99.90
11280;DHT22;5696;50.928;6.960;2022-12-20T16:35:43;11.50;99.90
11280;DHT22;5696;50.928;6.960;2022-12-20T16:38:09;11.50;99.90
11280;DHT22;5696;50.928;6.960;2022-12-20T16:40:34;11.50;99.90
11280;DHT22;5696;50.928;6.960;2022-12-20T16:43:00;11.60;99.90
11280;DHT22;5696;50.928;6.960;2022-12-20T16:45:30;11.70;99.90
11280;DHT22;5696;50.928;6.960;2022-12-20T16:47:56;11.60;99.90
11280;DHT22;5696;50.928;6.960;2022-12-20T16:50:24;11.60;99.90
11280;DHT22;5696;50.928;6.960;2022-12-20T16:52:50;11.50;99.90
11280;DHT22;5696;50.928;6.960;2022-12-20T16:55:26;11.50;99.90
11280;DHT22;5696;50.928;6.960;2022-12-20T16:57:52;11.50;99.90
11280;DHT22;5696;50.928;6.960;2022-12-20T17:00:19;11.50;99.90
11280;DHT22;5696;50.928;6.960;2022-12-20T17:02:46;11.50;99.90
11280;DHT22;5696;50.928;6.960;2022-12-20T17:05:33;11.50;99.90
11280;DHT22;5696;50.928;6.960;2022-12-20T17:08:00;11.60;99.90
11280;DHT22;5696;50.928;6.960;2022-12-20T17:10:26;11.60;99.90
11280;DHT22;5696;50.928;6.960;2022-12-20T17:12:52;11.60;99.90
11280;DHT22;5696;50.928;6.960;2022-12-20T17:15:22;11.60;99.90
11280;DHT22;5696;50.928;6.960;2022-12-20T17:17:49;11.60;99.90
11280;DHT22;5696;50.928;6.960;2022-12-20T17:20:16;11.60;99.90
11280;DHT22;5696;50.928;6.960;2022-12-20T17:22:42;11.70;99.90
11280;DHT22;5696;50.928;6.960;2022-12-20T17:25:32;11.70;99.90
11280;DHT22;5696;50.928;6.960;2022-12-20T17:27:57;11.70;99.90
11280;DHT22;5696;50.928;6.960;2022-12-20T17:30:24;11.70;99.90
11280;DHT22;5696;50.928;6.960;2022-12-20T17:32:50;11.80;99.90
11280;DHT22;5696;50.928;6.960;2022-12-20T17:35:26;11.80;99.90
11280;DHT22;5696;50.928;6.960;2022-12-20T17:37:52;11.80;99.90
11280;DHT22;5696;50.928;6.960;2022-12-20T17:40:21;11.80;99.90
11280;DHT22;5696;50.928;6.960;2022-12-20T17:42:47;11.70;99.90
11280;DHT22;5696;50.928;6.960;2022-12-20T17:45:31;11.60;99.90
11280;DHT22;5696;50.928;6.960;2022-12-20T17:47:57;11.60;99.90
11280;DHT22;5696;50.928;6.960;2022-12-20T17:50:24;11.60;99.90
11280;DHT22;5696;50.928;6.960;2022-12-20T17:52:51;11.50;99.90
11280;DHT22;5696;50.928;6.960;2022-12-20T17:55:20;11.50;99.90
11280;DHT22;5696;50.928;6.960;2022-12-20T17:57:47;11.50;99.90
11280;DHT22;5696;50.928;6.960;2022-12-20T18:00:26;11.40;99.90
11280;DHT22;5696;50.928;6.960;2022-12-20T18:02:52;11.40;99.90
11280;DHT22;5696;50.928;6.960;2022-12-20T18:05:18;11.30;99.90
11280;DHT22;5696;50.928;6.960;2022-12-20T18:07:54;11.30;99.90
11280;DHT22;5696;50.928;6.960;2022-12-20T18:10:23;11.30;99.90
11280;DHT22;5696;50.928;6.960;2022-12-20T18:12:49;11.20;99.90
11280;DHT22;5696;50.928;6.960;2022-12-20T18:15:15;11.20;99.90
11280;DHT22;5696;50.928;6.960;2022-12-20T18:17:41;11.20;99.90
11280;DHT22;5696;50.928;6.960;2022-12-20T18:20:08;11.20;99.90
11280;DHT22;5696;50.928;6.960;2022-12-20T18:22:35;11.10;99.90
11280;DHT22;5696;50.928;6.960;2022-12-20T18:25:01;11.10;99.90
11280;DHT22;5696;50.928;6.960;2022-12-20T18:27:34;11.10;99.90
11280;DHT22;5696;50.928;6.960;2022-12-20T18:30:00;11.10;99.90
11280;DHT22;5696;50.928;6.960;2022-12-20T18:32:26;11.10;99.90
11280;DHT22;5696;50.928;6.960;2022-12-20T18:34:51;11.10;99.90
11280;DHT22;5696;50.928;6.960;2022-12-20T18:37:17;11.10;99.90
11280;DHT22;5696;50.928;6.960;2022-12-20T18:39:42;11.10;99.90
11280;DHT22;5696;50.928;6.960;2022-12-20T18:42:08;11.10;99.90
11280;DHT22;5696;50.928;6.960;2022-12-20T18:44:34;11.10;99.90
11280;DHT22;5696;50.928;6.960;2022-12-20T18:47:00;11.10;99.90
11280;DHT22;5696;50.928;6.960;2022-12-20T18:49:27;11.10;99.90
11280;DHT22;5696;50.928;6.960;2022-12-20T18:51:53;11.10;99.90
11280;DHT22;5696;50.928;6.960;2022-12-20T18:54:18;11.10;99.90
11280;DHT22;5696;50.928;6.960;2022-12-20T18:56:44;11.10;99.90
11280;DHT22;5696;50.928;6.960;2022-12-20T18:59:10;11.10;99.90
11280;DHT22;5696;50.928;6.960;2022-12-20T19:01:36;11.00;99.90
11280;DHT22;5696;50.928;6.960;2022-12-20T19:04:04;11.00;99.90
11280;DHT22;5696;50.928;6.960;2022-12-20T19:06:30;11.00;99.90
11280;DHT22;5696;50.928;6.960;2022-12-20T19:09:00;11.00;99.90
11280;DHT22;5696;50.928;6.960;2022-12-20T19:11:27;11.00;99.90
11280;DHT22;5696;50.928;6.960;2022-12-20T19:13:54;11.00;99.90
11280;DHT22;5696;50.928;6.960;2022-12-20T19:16:22;11.00;99.90
11280;DHT22;5696;50.928;6.960;2022-12-20T19:18:48;11.00;99.90
11280;DHT22;5696;50.928;6.960;2022-12-20T19:21:20;11.00;99.90
11280;DHT22;5696;50.928;6.960;2022-12-20T19:23:48;11.00;99.90
11280;DHT22;5696;50.928;6.960;2022-12-20T19:26:14;11.00;99.90
11280;DHT22;5696;50.928;6.960;2022-12-20T19:28:41;11.00;99.90
11280;DHT22;5696;50.928;6.960;2022-12-20T19:31:12;11.00;99.90
11280;DHT22;5696;50.928;6.960;2022-12-20T19:33:39;11.00;99.90
11280;DHT22;5696;50.928;6.960;2022-12-20T19:36:10;11.00;99.90
11280;DHT22;5696;50.928;6.960;2022-12-20T19:38:36;11.00;99.90
11280;DHT22;5696;50.928;6.960;2022-12-20T19:41:02;11.00;99.90
11280;DHT22;5696;50.928;6.960;2022-12-20T19:43:28;11.00;99.90
11280;DHT22;5696;50.928;6.960;2022-12-20T19:45:57;11.00;99.90
11280;DHT22;5696;50.928;6.960;2022-12-20T19:48:22;11.00;99.90
11280;DHT22;5696;50.928;6.960;2022-12-20T19:50:48;11.00;99.90
11280;DHT22;5696;50.928;6.960;2022-12-20T19:53:14;11.00;99.90
11280;DHT22;5696;50.928;6.960;2022-12-20T19:55:39;11.00;99.90
11280;DHT22;5696;50.928;6.960;2022-12-20T19:58:05;11.00;99.90
11280;DHT22;5696;50.928;6.960;2022-12-20T20:00:32;11.00;99.90
11280;DHT22;5696;50.928;6.960;2022-12-20T20:02:57;11.00;99.90
11280;DHT22;5696;50.928;6.960;2022-12-20T20:05:23;11.00;99.90
11280;DHT22;5696;50.928;6.960;2022-12-20T20:07:48;11.00;99.90
11280;DHT22;5696;50.928;6.960;2022-12-20T20:10:15;11.00;99.90
11280;DHT22;5696;50.928;6.960;2022-12-20T20:12:41;11.00;99.90
11280;DHT22;5696;50.928;6.960;2022-12-20T20:15:07;11.00;99.90
11280;DHT22;5696;50.928;6.960;2022-12-20T20:17:33;11.00;99.90
11280;DHT22;5696;50.928;6.960;2022-12-20T20:20:00;11.00;99.90
11280;DHT22;5696;50.928;6.960;2022-12-20T20:22:26;11.00;99.90
11280;DHT22;5696;50.928;6.960;2022-12-20T20:24:51;11.00;99.90
11280;DHT22;5696;50.928;6.960;2022-12-20T20:27:17;11.00;99.90
11280;DHT22;5696;50.928;6.960;2022-12-20T20:29:43;11.00;99.90
11280;DHT22;5696;50.928;6.960;2022-12-20T20:32:08;11.00;99.90
11280;DHT22;5696;50.928;6.960;2022-12-20T20:34:34;11.00;99.90
11280;DHT22;5696;50.928;6.960;2022-12-20T20:36:59;11.00;99.90
11280;DHT22;5696;50.928;6.960;2022-12-20T20:39:25;11.00;99.90
11280;DHT22;5696;50.928;6.960;2022-12-20T20:41:51;11.00;99.90
11280;DHT22;5696;50.928;6.960;2022-12-20T20:44:16;11.00;99.90
11280;DHT22;5696;50.928;6.960;2022-12-20T20:46:42;11.00;99.90
11280;DHT22;5696;50.928;6.960;2022-12-20T20:49:08;11.00;99.90
11280;DHT22;5696;50.928;6.960;2022-12-20T20:51:33;11.00;99.90
11280;DHT22;5696;50.928;6.960;2022-12-20T20:53:59;11.00;99.90
11280;DHT22;5696;50.928;6.960;2022-12-20T20:56:25;11.00;99.90
11280;DHT22;5696;50.928;6.960;2022-12-20T20:58:50;11.00;99.90
11280;DHT22;5696;50.928;6.960;2022-12-20T21:01:16;11.00;99.90
11280;DHT22;5696;50.928;6.960;2022-12-20T21:03:42;11.00;99.90
11280;DHT22;5696;50.928;6.960;2022-12-20T21:06:08;11.00;99.90
11280;DHT22;5696;50.928;6.960;2022-12-20T21:08:34;11.00;99.90
11280;DHT22;5696;50.928;6.960;2022-12-20T21:11:07;11.00;99.90
11280;DHT22;5696;50.928;6.960;2022-12-20T21:13:33;10.90;99.90
11280;DHT22;5696;50.928;6.960;2022-12-20T21:16:10;10.90;99.90
11280;DHT22;5696;50.928;6.960;2022-12-20T21:18:36;10.90;99.90
11280;DHT22;5696;50.928;6.960;2022-12-20T21:21:09;10.90;99.90
11280;DHT22;5696;50.928;6.960;2022-12-20T21:23:36;10.90;99.90
11280;DHT22;5696;50.928;6.960;2022-12-20T21:26:02;10.80;99.90
11280;DHT22;5696;50.928;6.960;2022-12-20T21:28:28;10.80;99.90
11280;DHT22;5696;50.928;6.960;2022-12-20T21:31:04;10.80;99.90
11280;DHT22;5696;50.928;6.960;2022-12-20T21:33:30;10.80;99.90
11280;DHT22;5696;50.928;6.960;2022-12-20T21:36:01;10.80;99.90
11280;DHT22;5696;50.928;6.960;2022-12-20T21:38:27;10.80;99.90
11280;DHT22;5696;50.928;6.960;2022-12-20T21:41:04;10.80;99.90
11280;DHT22;5696;50.928;6.960;2022-12-20T21:43:33;10.70;99.90
11280;DHT22;5696;50.928;6.960;2022-12-20T21:45:59;10.70;99.90
11280;DHT22;5696;50.928;6.960;2022-12-20T21:48:26;10.60;99.90
11280;DHT22;5696;50.928;6.960;2022-12-20T21:51:03;10.60;99.90
11280;DHT22;5696;50.928;6.960;2022-12-20T21:53:30;10.60;99.90
11280;DHT22;5696;50.928;6.960;2022-12-20T21:55:57;10.60;99.90
11280;DHT22;5696;50.928;6.960;2022-12-20T21:58:24;10.60;99.90
11280;DHT22;5696;50.928;6.960;2022-12-20T22:00:54;10.60;99.90
11280;DHT22;5696;50.928;6.960;2022-12-20T22:03:21;10.60;99.90
11280;DHT22;5696;50.928;6.960;2022-12-20T22:05:48;10.70;99.90
11280;DHT22;5696;50.928;6.960;2022-12-20T22:08:15;10.60;99.90
11280;DHT22;5696;50.928;6.960;2022-12-20T22:10:41;10.70;99.90
11280;DHT22;5696;50.928;6.960;2022-12-20T22:13:07;10.70;99.90
11280;DHT22;5696;50.928;6.960;2022-12-20T22:15:35;10.70;99.90
11280;DHT22;5696;50.928;6.960;2022-12-20T22:18:05;10.70;99.90
11280;DHT22;5696;50.928;6.960;2022-12-20T22:20:31;10.60;99.90
11280;DHT22;5696;50.928;6.960;2022-12-20T22:22:57;10.70;99.90
11280;DHT22;5696;50.928;6.960;2022-12-20T22:25:22;10.70;99.90
11280;DHT22;5696;50.928;6.960;2022-12-20T22:27:52;10.70;99.90
11280;DHT22;5696;50.928;6.960;2022-12-20T22:30:18;10.60;99.90
11280;DHT22;5696;50.928;6.960;2022-12-20T22:32:43;10.60;99.90
11280;DHT22;5696;50.928;6.960;2022-12-20T22:35:09;10.60;99.90
11280;DHT22;5696;50.928;6.960;2022-12-20T22:37:35;10.60;99.90
11280;DHT22;5696;50.928;6.960;2022-12-20T22:40:00;10.60;99.90
11280;DHT22;5696;50.928;6.960;2022-12-20T22:42:26;10.60;99.90
11280;DHT22;5696;50.928;6.960;2022-12-20T22:44:52;10.60;99.90
11280;DHT22;5696;50.928;6.960;2022-12-20T22:47:18;10.60;99.90
11280;DHT22;5696;50.928;6.960;2022-12-20T22:49:44;10.70;99.90
11280;DHT22;5696;50.928;6.960;2022-12-20T22:52:09;10.70;99.90
11280;DHT22;5696;50.928;6.960;2022-12-20T22:54:35;10.70;99.90
11280;DHT22;5696;50.928;6.960;2022-12-20T22:57:01;10.70;99.90
11280;DHT22;5696;50.928;6.960;2022-12-20T22:59:26;10.60;99.90
11280;DHT22;5696;50.928;6.960;2022-12-20T23:01:52;10.50;99.90
11280;DHT22;5696;50.928;6.960;2022-12-20T23:04:18;10.50;99.90
11280;DHT22;5696;50.928;6.960;2022-12-20T23:06:43;10.40;99.90
